Time;durP1;ratioP1;P1;durP2;ratioP2;P2;SDS_P1;SDS_P2;PMS_P1;PMS_P2;Temp;Humidity;BMP_temperature;BMP_pressure;BME280_temperature;BME280_humidity;BME280_pressure;Samples;Min_cycle;Max_cycle;Signal;HPM_P1;HPM_P2
2022/04/04 00:03:47;;;;;;;;;;;;;;;21.67;43.46;100638.78;20681368;27;97648;-76
2022/04/04 00:13:47;;;;;;;;;;;;;;;21.64;43.23;100639.03;20697037;27;98580;-75
2022/04/04 00:23:48;;;;;;;;;;;;;;;21.59;42.88;100644.66;20694262;27;97786;-77
2022/04/04 00:33:48;;;;;;;;;;;;;;;21.62;42.73;100642.72;20692704;27;98058;-76
2022/04/04 00:43:52;;;;;;;;;;;;;;;21.58;42.93;100634.22;20696454;27;97452;-76
2022/04/04 00:53:53;;;;;;;;;;;;;;;21.55;43.07;100632.63;20710147;27;97471;-75
2022/04/04 01:03:53;;;;;;;;;;;;;;;21.54;42.96;100627.47;20700989;27;97408;-75
2022/04/04 01:13:54;;;;;;;;;;;;;;;21.48;42.87;100635.84;20710405;27;97287;-76
2022/04/04 01:23:58;;;;;;;;;;;;;;;21.48;42.83;100638.47;20705503;27;101259;-76
2022/04/04 01:33:58;;;;;;;;;;;;;;;21.48;42.78;100641.09;20718131;27;97667;-76
2022/04/04 01:43:59;;;;;;;;;;;;;;;21.43;42.78;100644.94;20719764;27;97135;-77
2022/04/04 01:54:02;;;;;;;;;;;;;;;21.41;42.59;100646.84;20719130;27;107280;-78
2022/04/04 02:04:03;;;;;;;;;;;;;;;21.39;42.71;100650.53;20716982;27;96993;-77
2022/04/04 02:14:03;;;;;;;;;;;;;;;21.37;42.78;100650.66;20721056;27;100506;-75
2022/04/04 02:24:05;;;;;;;;;;;;;;;21.36;42.65;100654.25;20724828;27;97460;-77
2022/04/04 02:34:05;;;;;;;;;;;;;;;21.32;42.74;100650.13;20714952;27;98235;-77
2022/04/04 02:44:06;;;;;;;;;;;;;;;21.31;42.42;100663.44;20708035;27;97673;-76
2022/04/04 02:54:06;;;;;;;;;;;;;;;21.30;42.89;100667.00;20711145;27;98613;-76
2022/04/04 03:04:07;;;;;;;;;;;;;;;21.26;43.04;100661.97;20711417;27;98375;-77
2022/04/04 03:14:08;;;;;;;;;;;;;;;21.23;43.07;100661.38;20694886;27;97968;-77
2022/04/04 03:24:08;;;;;;;;;;;;;;;21.19;43.03;100666.03;20696683;27;97101;-75
2022/04/04 03:34:09;;;;;;;;;;;;;;;21.15;43.04;100674.25;20708503;27;97894;-75
2022/04/04 03:44:09;;;;;;;;;;;;;;;21.17;42.96;100680.25;20701629;27;97671;-76
2022/04/04 03:54:10;;;;;;;;;;;;;;;21.15;42.72;100679.50;20694059;27;96898;-76
2022/04/04 04:04:10;;;;;;;;;;;;;;;21.02;42.90;100687.44;20684070;27;97605;-78
2022/04/04 04:14:12;;;;;;;;;;;;;;;21.16;43.55;100700.47;20698802;27;98513;-74
2022/04/04 04:24:13;;;;;;;;;;;;;;;21.23;43.73;100691.16;20701443;27;97469;-75
2022/04/04 04:34:13;;;;;;;;;;;;;;;21.31;44.45;100689.78;20709528;27;97896;-77
2022/04/04 04:44:14;;;;;;;;;;;;;;;21.46;44.20;100700.97;20718955;27;97074;-77
2022/04/04 04:54:15;;;;;;;;;;;;;;;21.43;42.37;100705.53;20715720;27;101067;-76
2022/04/04 05:04:16;;;;;;;;;;;;;;;21.52;41.37;100714.53;20697910;27;97319;-78
2022/04/04 05:14:16;;;;;;;;;;;;;;;20.72;34.80;100715.84;20715813;27;97436;-75
2022/04/04 05:24:18;;;;;;;;;;;;;;;21.09;36.82;100723.78;20709042;27;100553;-75
2022/04/04 05:34:20;;;;;;;;;;;;;;;21.15;37.56;100735.63;20725000;27;98981;-75
2022/04/04 05:44:20;;;;;;;;;;;;;;;21.36;39.08;100737.69;20721130;27;97718;-76
2022/04/04 05:54:21;;;;;;;;;;;;;;;21.49;40.20;100742.91;20729841;27;97899;-73
2022/04/04 06:04:21;;;;;;;;;;;;;;;21.53;40.10;100747.84;20733171;27;97089;-76
2022/04/04 06:14:22;;;;;;;;;;;;;;;21.59;40.63;100747.44;20725972;27;97664;-76
2022/04/04 06:24:22;;;;;;;;;;;;;;;21.66;40.98;100754.88;20720581;27;98073;-76
2022/04/04 06:34:28;;;;;;;;;;;;;;;21.72;41.10;100760.53;20724596;27;100621;-77
2022/04/04 06:44:29;;;;;;;;;;;;;;;21.74;41.08;100761.25;20717652;27;101827;-76
2022/04/04 06:54:29;;;;;;;;;;;;;;;21.78;41.65;100758.41;20726681;27;97470;-76
2022/04/04 07:04:29;;;;;;;;;;;;;;;21.63;38.93;100766.50;20725230;27;97273;-76
2022/04/04 07:14:30;;;;;;;;;;;;;;;21.80;38.99;100772.28;20744635;27;97091;-76
2022/04/04 07:24:30;;;;;;;;;;;;;;;21.83;39.15;100767.63;20724362;27;97025;-76
2022/04/04 07:34:31;;;;;;;;;;;;;;;21.85;39.34;100768.38;20724628;27;97133;-77
2022/04/04 07:44:31;;;;;;;;;;;;;;;21.87;39.55;100773.53;20715195;27;96911;-78
2022/04/04 07:54:32;;;;;;;;;;;;;;;21.91;39.57;100765.28;20737758;27;97655;-79
2022/04/04 08:04:33;;;;;;;;;;;;;;;21.97;39.53;100765.78;20739488;27;97634;-79
2022/04/04 08:14:36;;;;;;;;;;;;;;;21.98;39.63;100764.81;20734934;27;97112;-79
2022/04/04 08:24:38;;;;;;;;;;;;;;;21.99;39.82;100756.78;20720804;27;96862;-77
2022/04/04 08:34:38;;;;;;;;;;;;;;;21.99;39.43;100755.97;20722003;27;97207;-77
2022/04/04 08:44:39;;;;;;;;;;;;;;;21.94;40.12;100729.94;20733872;27;96809;-77
2022/04/04 08:54:40;;;;;;;;;;;;;;;21.80;37.21;100719.56;20711844;27;97698;-78
2022/04/04 09:04:40;;;;;;;;;;;;;;;21.87;37.43;100712.88;20703399;27;98976;-76
2022/04/04 09:14:45;;;;;;;;;;;;;;;21.90;37.82;100695.03;20715941;27;96926;-78
2022/04/04 09:24:49;;;;;;;;;;;;;;;21.90;38.04;100681.03;20719616;27;97897;-78
2022/04/04 09:35:10;;;;;;;;;;;;;;;21.93;38.30;100670.25;20720657;27;98672;-77
2022/04/04 09:45:13;;;;;;;;;;;;;;;21.96;38.25;100650.72;20728437;27;97618;-79
2022/04/04 09:55:26;;;;;;;;;;;;;;;21.99;39.09;100643.41;20721448;27;97554;-78
2022/04/04 10:05:26;;;;;;;;;;;;;;;22.10;38.19;100636.47;20713360;27;98088;-77
2022/04/04 10:15:28;;;;;;;;;;;;;;;21.68;29.87;100613.28;20723096;27;96954;-78
2022/04/04 10:25:29;;;;;;;;;;;;;;;21.72;29.12;100598.91;20726944;27;97862;-78
2022/04/04 10:35:30;;;;;;;;;;;;;;;21.59;27.56;100597.22;20711604;27;98065;-79
2022/04/04 10:45:48;;;;;;;;;;;;;;;21.48;28.51;100576.06;20708836;27;97493;-77
2022/04/04 10:55:52;;;;;;;;;;;;;;;21.79;32.37;100571.13;20683418;27;97823;-77
2022/04/04 11:16:17;;;;;;;;;;;;;;;21.97;35.01;100542.50;20708385;27;98394;-77
2022/04/04 11:26:18;;;;;;;;;;;;;;;22.02;36.46;100532.44;20715357;27;98406;-78
2022/04/04 11:36:27;;;;;;;;;;;;;;;22.09;37.04;100535.41;20707908;27;97607;-76
2022/04/04 11:46:27;;;;;;;;;;;;;;;22.15;37.82;100524.38;20713208;27;96976;-76
2022/04/04 11:56:27;;;;;;;;;;;;;;;22.23;37.63;100513.22;20720262;27;97035;-76
2022/04/04 12:06:29;;;;;;;;;;;;;;;22.26;38.20;100502.41;20716001;27;96981;-75
2022/04/04 12:16:32;;;;;;;;;;;;;;;22.28;37.63;100486.50;20704453;27;99062;-75
2022/04/04 12:26:34;;;;;;;;;;;;;;;22.35;38.35;100467.41;20707236;27;97796;-77
2022/04/04 12:36:38;;;;;;;;;;;;;;;22.48;37.33;100443.50;20706251;27;98755;-77
2022/04/04 12:46:38;;;;;;;;;;;;;;;22.67;41.04;100434.09;20726796;27;97434;-77
2022/04/04 12:56:49;;;;;;;;;;;;;;;22.84;40.41;100422.13;20716026;27;100824;-76
2022/04/04 13:06:49;;;;;;;;;;;;;;;22.89;40.69;100421.72;20704271;27;99109;-75
2022/04/04 13:17:03;;;;;;;;;;;;;;;22.69;37.15;100389.91;20688467;27;97510;-76
2022/04/04 13:27:03;;;;;;;;;;;;;;;22.65;38.19;100384.03;20689108;27;97657;-75
2022/04/04 13:37:04;;;;;;;;;;;;;;;22.57;37.39;100368.03;20693641;27;97838;-79
2022/04/04 13:47:04;;;;;;;;;;;;;;;22.50;37.87;100365.06;20709188;27;97760;-81
2022/04/04 13:57:05;;;;;;;;;;;;;;;22.45;39.00;100345.28;20706663;27;96922;-78
2022/04/04 14:07:06;;;;;;;;;;;;;;;22.35;37.81;100332.00;20712837;27;97801;-79
2022/04/04 14:17:06;;;;;;;;;;;;;;;22.30;39.31;100321.00;20712681;27;99968;-80
2022/04/04 14:27:09;;;;;;;;;;;;;;;22.27;39.27;100316.00;20727070;27;97054;-79
2022/04/04 14:37:09;;;;;;;;;;;;;;;22.24;38.80;100306.53;20733905;27;97518;-80
2022/04/04 14:47:10;;;;;;;;;;;;;;;22.22;38.63;100290.81;20728131;27;96889;-79
2022/04/04 14:57:10;;;;;;;;;;;;;;;22.20;39.59;100276.09;20722558;27;98204;-79
2022/04/04 15:07:13;;;;;;;;;;;;;;;22.17;39.27;100268.47;20707236;27;100416;-78
2022/04/04 15:17:14;;;;;;;;;;;;;;;21.81;34.91;100244.16;20701521;27;99282;-78
2022/04/04 15:27:17;;;;;;;;;;;;;;;21.93;35.58;100235.25;20703899;27;97706;-78
2022/04/04 15:37:18;;;;;;;;;;;;;;;22.00;36.09;100222.41;20706908;27;97854;-78
2022/04/04 15:47:19;;;;;;;;;;;;;;;22.00;36.98;100212.69;20717119;27;97372;-79
2022/04/04 15:57:19;;;;;;;;;;;;;;;21.90;35.85;100203.88;20694992;27;99430;-78
2022/04/04 16:07:20;;;;;;;;;;;;;;;21.91;37.00;100187.94;20709312;27;97004;-79
2022/04/04 16:17:20;;;;;;;;;;;;;;;21.96;37.62;100177.00;20697191;27;100526;-78
2022/04/04 16:27:22;;;;;;;;;;;;;;;21.98;38.58;100159.22;20706430;27;98330;-79
2022/04/04 16:37:22;;;;;;;;;;;;;;;21.95;38.50;100142.84;20704406;27;97825;-79
2022/04/04 16:47:24;;;;;;;;;;;;;;;21.97;39.17;100130.38;20725045;27;97049;-80
2022/04/04 16:57:24;;;;;;;;;;;;;;;21.96;39.32;100121.66;20705346;27;97667;-78
2022/04/04 17:07:25;;;;;;;;;;;;;;;21.98;40.71;100105.69;20700112;27;99206;-79
2022/04/04 17:17:26;;;;;;;;;;;;;;;21.99;42.80;100097.63;20714436;27;96907;-78
2022/04/04 17:27:27;;;;;;;;;;;;;;;22.08;44.48;100103.91;20722894;27;97064;-79
2022/04/04 17:37:27;;;;;;;;;;;;;;;22.13;44.80;100095.63;20718096;27;98994;-77
2022/04/04 17:47:29;;;;;;;;;;;;;;;22.16;44.14;100076.91;20726244;27;100898;-78
2022/04/04 17:57:29;;;;;;;;;;;;;;;22.15;44.57;100070.78;20720365;27;97240;-80
2022/04/04 18:07:30;;;;;;;;;;;;;;;22.15;45.39;100067.31;20717333;27;97338;-77
2022/04/04 18:17:33;;;;;;;;;;;;;;;22.14;44.52;100055.09;20719113;27;97820;-74
2022/04/04 18:27:33;;;;;;;;;;;;;;;22.12;43.82;100057.03;20726589;27;97831;-72
2022/04/04 18:37:37;;;;;;;;;;;;;;;22.07;44.25;100047.72;20697801;27;97924;-75
2022/04/04 18:47:37;;;;;;;;;;;;;;;22.03;43.72;100037.56;20720379;27;98216;-76
2022/04/04 18:57:40;;;;;;;;;;;;;;;21.98;42.63;100037.13;20711079;27;97874;-74
2022/04/04 19:07:40;;;;;;;;;;;;;;;21.93;43.45;100013.81;20694977;27;97078;-74
2022/04/04 19:17:41;;;;;;;;;;;;;;;21.91;43.53;100006.03;20719793;27;97773;-76
2022/04/04 19:27:43;;;;;;;;;;;;;;;21.88;43.56;99989.66;20690815;27;97201;-77
2022/04/04 19:37:44;;;;;;;;;;;;;;;21.83;43.16;99978.69;20699861;27;96870;-76
2022/04/04 19:47:44;;;;;;;;;;;;;;;21.82;43.71;99964.66;20714911;27;97113;-76
2022/04/04 19:57:45;;;;;;;;;;;;;;;21.79;43.09;99962.31;20744107;27;97224;-76
2022/04/04 20:07:46;;;;;;;;;;;;;;;21.71;43.30;99939.22;20732944;27;97050;-75
2022/04/04 20:17:46;;;;;;;;;;;;;;;21.71;43.20;99936.59;20737581;27;97554;-75
2022/04/04 20:27:50;;;;;;;;;;;;;;;21.72;44.12;99927.72;20729312;27;101319;-75
2022/04/04 20:37:52;;;;;;;;;;;;;;;21.84;44.24;99917.09;20726773;27;102546;-76
2022/04/04 20:48:00;;;;;;;;;;;;;;;21.86;44.14;99907.25;20735946;27;97866;-76
2022/04/04 20:58:00;;;;;;;;;;;;;;;21.86;43.80;99900.19;20727108;27;97727;-76
2022/04/04 21:08:01;;;;;;;;;;;;;;;21.73;44.06;99881.16;20712552;27;99784;-76
2022/04/04 21:18:03;;;;;;;;;;;;;;;21.66;44.03;99880.84;20723277;27;97681;-77
2022/04/04 21:28:04;;;;;;;;;;;;;;;21.60;43.55;99881.38;20716557;27;96950;-77
2022/04/04 21:38:04;;;;;;;;;;;;;;;21.51;43.68;99874.25;20703001;27;99379;-77
2022/04/04 21:48:06;;;;;;;;;;;;;;;21.50;44.00;99856.78;20709841;27;97339;-76
2022/04/04 21:58:07;;;;;;;;;;;;;;;21.48;43.82;99842.91;20702949;27;97738;-77
2022/04/04 22:08:08;;;;;;;;;;;;;;;21.42;43.97;99833.72;20698478;27;98432;-76
2022/04/04 22:18:08;;;;;;;;;;;;;;;21.41;44.24;99817.09;20720219;27;98079;-77
2022/04/04 22:28:08;;;;;;;;;;;;;;;21.39;43.61;99815.56;20716816;27;96998;-77
2022/04/04 22:38:09;;;;;;;;;;;;;;;21.35;43.88;99811.53;20711299;27;98391;-77
2022/04/04 22:48:09;;;;;;;;;;;;;;;21.29;44.19;99810.28;20706046;27;101788;-77
2022/04/04 22:58:10;;;;;;;;;;;;;;;21.27;43.89;99802.47;20711720;27;97235;-78
2022/04/04 23:08:10;;;;;;;;;;;;;;;21.28;44.32;99803.34;20703977;27;97449;-76
2022/04/04 23:18:11;;;;;;;;;;;;;;;21.23;44.05;99803.72;20706541;27;97908;-77
2022/04/04 23:28:11;;;;;;;;;;;;;;;21.21;44.13;99789.03;20707217;27;99306;-77
2022/04/04 23:38:12;;;;;;;;;;;;;;;21.16;44.08;99789.44;20705632;27;97538;-76
2022/04/04 23:48:12;;;;;;;;;;;;;;;21.14;43.97;99769.47;20705114;27;96807;-76
2022/04/04 23:58:13;;;;;;;;;;;;;;;21.13;43.99;99755.50;20702182;27;97907;-75
